Time;durP1;ratioP1;P1;durP2;ratioP2;P2;SDS_P1;SDS_P2;PMS_P1;PMS_P2;Temp;Humidity;BMP_temperature;BMP_pressure;BME280_temperature;BME280_humidity;BME280_pressure;Samples;Min_cycle;Max_cycle;Signal;HPM_P1;HPM_P2
2023/12/22 00:01:29;;;;;;;15.25;0.73;;;7.00;99.90;;;;;;5077878;28;20020;-75
2023/12/22 00:03:55;;;;;;;8.25;0.22;;;7.00;99.90;;;;;;5078773;28;20031;-75
2023/12/22 00:06:20;;;;;;;4.97;0.85;;;7.00;99.90;;;;;;5078472;28;20622;-75
2023/12/22 00:08:46;;;;;;;4.20;0.40;;;7.10;99.90;;;;;;5061456;28;20029;-75
2023/12/22 00:11:12;;;;;;;10.27;0.22;;;7.00;99.90;;;;;;5059796;28;20025;-75
2023/12/22 00:13:37;;;;;;;9.55;0.30;;;7.10;99.90;;;;;;5077631;28;20028;-75
2023/12/22 00:16:03;;;;;;;5.85;0.77;;;7.10;99.90;;;;;;5060271;28;20032;-75
2023/12/22 00:18:29;;;;;;;6.93;0.55;;;7.10;99.90;;;;;;5061509;28;20108;-75
2023/12/22 00:20:55;;;;;;;10.02;0.30;;;7.10;99.90;;;;;;5078149;28;20017;-75
2023/12/22 00:23:20;;;;;;;7.78;0.20;;;7.10;99.90;;;;;;5061399;28;20020;-75
2023/12/22 00:25:46;;;;;;;8.15;1.20;;;7.10;99.90;;;;;;5080506;28;20031;-75
2023/12/22 00:28:11;;;;;;;1.83;0.15;;;6.80;99.90;;;;;;5080919;28;20064;-75
2023/12/22 00:30:37;;;;;;;1.23;0.00;;;6.70;99.90;;;;;;5079288;28;20036;-74
2023/12/22 00:33:03;;;;;;;4.47;0.10;;;6.30;99.90;;;;;;5079713;28;20487;-75
2023/12/22 00:35:28;;;;;;;3.45;0.20;;;6.20;99.90;;;;;;5079486;28;20029;-75
2023/12/22 00:37:54;;;;;;;1.10;0.00;;;6.20;99.90;;;;;;5080154;28;20013;-75
2023/12/22 00:40:19;;;;;;;2.53;0.25;;;6.10;99.90;;;;;;5062057;28;20008;-75
2023/12/22 00:42:45;;;;;;;3.97;0.47;;;6.10;99.90;;;;;;5079731;28;20021;-75
2023/12/22 00:45:11;;;;;;;7.85;1.20;;;6.00;99.90;;;;;;5079317;28;20029;-75
2023/12/22 00:47:37;;;;;;;5.00;0.00;;;6.00;99.90;;;;;;5079858;28;20029;-74
2023/12/22 00:50:04;;;;;;;9.10;0.13;;;5.90;99.90;;;;;;5061336;28;20036;-74
2023/12/22 00:52:33;;;;;;;7.13;0.03;;;5.90;99.90;;;;;;5079884;28;20062;-75
2023/12/22 00:54:58;;;;;;;7.90;0.60;;;5.80;99.90;;;;;;5061206;28;20484;-75
2023/12/22 00:57:24;;;;;;;9.35;0.10;;;5.80;99.90;;;;;;5079924;28;20050;-75
2023/12/22 00:59:49;;;;;;;6.05;1.35;;;5.90;99.90;;;;;;5079851;28;20349;-75
2023/12/22 01:02:16;;;;;;;6.55;0.35;;;5.90;99.90;;;;;;5079885;28;20494;-75
2023/12/22 01:04:41;;;;;;;3.92;0.30;;;5.90;99.90;;;;;;5079149;28;20021;-74
2023/12/22 01:07:08;;;;;;;6.47;0.85;;;5.90;99.90;;;;;;5060867;28;20050;-74
2023/12/22 01:09:34;;;;;;;2.80;0.00;;;6.00;99.90;;;;;;5078855;28;20032;-74
2023/12/22 01:12:02;;;;;;;7.25;0.55;;;5.90;99.90;;;;;;5079515;28;20024;-74
2023/12/22 01:14:28;;;;;;;5.80;0.08;;;6.00;99.90;;;;;;5079133;28;20024;-74
2023/12/22 01:16:54;;;;;;;10.00;0.40;;;5.90;99.90;;;;;;5079354;28;20066;-74
2023/12/22 01:19:19;;;;;;;4.38;0.20;;;5.90;99.90;;;;;;5080183;28;20074;-74
2023/12/22 01:21:45;;;;;;;6.13;0.00;;;6.00;99.90;;;;;;5061592;28;20115;-74
2023/12/22 01:24:11;;;;;;;6.28;0.05;;;6.00;99.90;;;;;;5078251;28;20063;-74
2023/12/22 01:26:36;;;;;;;7.43;0.40;;;5.90;99.90;;;;;;5060658;28;20548;-74
2023/12/22 01:29:02;;;;;;;6.40;0.52;;;6.00;99.90;;;;;;5060367;28;20036;-74
2023/12/22 01:31:28;;;;;;;9.80;0.20;;;6.00;99.90;;;;;;5077930;28;20043;-74
2023/12/22 01:33:53;;;;;;;14.55;0.68;;;6.00;99.90;;;;;;5058664;28;20426;-74
2023/12/22 01:36:19;;;;;;;7.43;0.20;;;6.00;99.90;;;;;;5059058;28;20509;-74
2023/12/22 01:38:45;;;;;;;7.00;0.32;;;6.00;99.90;;;;;;5076193;28;20024;-74
2023/12/22 01:41:10;;;;;;;12.93;0.40;;;6.10;99.90;;;;;;5076780;28;20031;-74
2023/12/22 01:43:36;;;;;;;11.18;0.75;;;6.10;99.90;;;;;;5058484;28;20074;-74
2023/12/22 01:46:02;;;;;;;9.57;0.30;;;6.10;99.90;;;;;;5076775;28;20032;-74
2023/12/22 01:48:29;;;;;;;5.25;0.20;;;6.10;99.90;;;;;;5077021;28;20029;-77
2023/12/22 01:50:56;;;;;;;8.95;0.88;;;6.10;99.90;;;;;;5059142;28;20029;-76
2023/12/22 01:53:24;;;;;;;9.90;0.00;;;6.10;99.90;;;;;;5059380;28;20025;-76
2023/12/22 01:55:51;;;;;;;7.93;0.10;;;6.10;99.90;;;;;;5076331;28;20028;-76
2023/12/22 01:58:18;;;;;;;11.77;0.30;;;6.00;99.90;;;;;;5077735;28;20035;-78
2023/12/22 02:00:44;;;;;;;9.40;0.20;;;6.10;99.90;;;;;;5077728;28;20028;-77
2023/12/22 02:03:10;;;;;;;9.27;0.73;;;6.10;99.90;;;;;;5076869;28;20021;-77
2023/12/22 02:05:36;;;;;;;9.35;1.45;;;6.10;99.90;;;;;;5058914;28;20068;-77
2023/12/22 02:08:02;;;;;;;9.25;0.60;;;6.10;99.90;;;;;;5076860;28;20020;-77
2023/12/22 02:10:27;;;;;;;14.18;0.65;;;6.10;99.90;;;;;;5059492;28;20565;-77
2023/12/22 02:12:53;;;;;;;8.00;0.70;;;6.00;99.90;;;;;;5058457;28;20078;-77
2023/12/22 02:15:19;;;;;;;13.10;0.40;;;6.00;99.90;;;;;;5058761;28;20028;-77
2023/12/22 02:18:09;;;;;;;17.33;1.35;;;6.00;99.90;;;;;;5058026;28;20049;-77
2023/12/22 02:20:35;;;;;;;17.52;0.30;;;6.00;99.90;;;;;;5059563;28;20063;-77
2023/12/22 02:23:00;;;;;;;21.50;0.88;;;6.00;99.90;;;;;;5059704;28;20020;-77
2023/12/22 02:25:26;;;;;;;13.55;1.10;;;6.00;99.90;;;;;;5076978;28;20028;-77
2023/12/22 02:28:00;;;;;;;16.60;1.90;;;6.00;99.90;;;;;;5077861;28;20030;-77
2023/12/22 02:30:52;;;;;;;7.63;0.20;;;6.00;99.90;;;;;;5076780;28;20032;-78
2023/12/22 02:33:20;;;;;;;14.15;1.70;;;6.10;99.90;;;;;;5058815;28;20021;-78
2023/12/22 02:35:49;;;;;;;11.75;0.32;;;6.20;99.90;;;;;;5076230;28;20103;-78
2023/12/22 02:38:15;;;;;;;22.27;1.02;;;6.20;99.90;;;;;;5076576;28;20111;-78
2023/12/22 02:40:41;;;;;;;9.13;0.55;;;6.30;99.90;;;;;;5058710;28;20107;-78
2023/12/22 02:43:08;;;;;;;14.18;1.23;;;6.40;99.90;;;;;;5058836;28;20063;-78
2023/12/22 02:45:34;;;;;;;13.38;1.23;;;6.40;99.90;;;;;;5077729;28;20064;-78
2023/12/22 02:48:00;;;;;;;12.80;0.57;;;6.50;99.90;;;;;;5062504;28;20025;-78
2023/12/22 02:50:25;;;;;;;14.00;2.05;;;6.50;99.90;;;;;;5063413;28;20399;-78
2023/12/22 02:52:51;;;;;;;17.77;2.05;;;6.70;99.90;;;;;;5064096;28;20475;-78
2023/12/22 02:55:16;;;;;;;15.68;0.98;;;6.70;99.90;;;;;;5062481;28;20021;-78
2023/12/22 02:57:42;;;;;;;29.13;2.10;;;6.60;99.90;;;;;;5062598;28;20046;-78
2023/12/22 03:00:08;;;;;;;8.93;1.17;;;6.60;99.90;;;;;;5061991;28;20017;-78
2023/12/22 03:02:34;;;;;;;12.15;0.55;;;6.70;99.90;;;;;;5080587;28;20028;-78
2023/12/22 03:04:59;;;;;;;14.40;0.50;;;6.80;99.90;;;;;;5062732;28;20031;-78
2023/12/22 03:07:25;;;;;;;9.93;1.75;;;6.80;99.90;;;;;;5080634;28;20035;-78
2023/12/22 03:09:50;;;;;;;9.50;0.77;;;6.90;99.90;;;;;;5063532;28;20021;-78
2023/12/22 03:12:16;;;;;;;13.23;1.00;;;6.90;99.90;;;;;;5081536;28;20036;-75
2023/12/22 03:14:41;;;;;;;17.48;1.13;;;7.00;99.90;;;;;;5080042;28;20361;-75
2023/12/22 03:17:07;;;;;;;23.58;2.05;;;7.00;99.90;;;;;;5062223;28;20032;-75
2023/12/22 03:19:33;;;;;;;11.88;0.38;;;7.00;99.90;;;;;;5078601;28;20032;-75
2023/12/22 03:22:00;;;;;;;12.98;1.33;;;7.00;99.90;;;;;;5061355;28;20511;-76
2023/12/22 03:24:26;;;;;;;8.95;1.60;;;7.00;99.90;;;;;;5078575;28;20372;-76
2023/12/22 03:26:52;;;;;;;10.23;1.50;;;7.00;99.90;;;;;;5077546;28;20422;-76
2023/12/22 03:29:18;;;;;;;21.42;0.73;;;7.00;99.90;;;;;;5059671;28;20519;-76
2023/12/22 03:31:45;;;;;;;17.38;0.77;;;6.90;99.90;;;;;;5059560;28;20024;-77
2023/12/22 03:34:11;;;;;;;11.30;0.68;;;7.10;99.90;;;;;;5077648;28;20028;-76
2023/12/22 03:36:36;;;;;;;9.90;0.43;;;7.00;99.90;;;;;;5061302;28;20096;-76
2023/12/22 03:39:03;;;;;;;17.45;0.60;;;7.20;99.90;;;;;;5079360;28;20029;-76
2023/12/22 03:41:29;;;;;;;18.80;1.05;;;7.30;99.90;;;;;;5079497;28;20100;-76
2023/12/22 03:43:56;;;;;;;12.27;1.50;;;7.40;99.90;;;;;;5077725;28;20036;-76
2023/12/22 03:46:22;;;;;;;15.43;1.08;;;7.50;99.90;;;;;;5059900;28;20066;-76
2023/12/22 03:48:47;;;;;;;17.92;0.85;;;7.60;99.90;;;;;;5078491;28;20024;-76
2023/12/22 03:51:14;;;;;;;8.15;0.47;;;7.60;99.90;;;;;;5061687;28;20021;-76
2023/12/22 03:53:40;;;;;;;10.30;0.93;;;7.70;99.90;;;;;;5079316;28;20024;-75
2023/12/22 03:56:07;;;;;;;14.45;1.00;;;7.80;99.90;;;;;;5079989;28;20114;-76
2023/12/22 03:58:33;;;;;;;6.60;0.40;;;8.10;99.90;;;;;;5078597;28;20483;-76
2023/12/22 04:00:59;;;;;;;13.65;1.63;;;9.90;99.90;;;;;;5080900;28;20047;-76
2023/12/22 04:03:24;;;;;;;6.63;0.43;;;7.90;99.90;;;;;;5078003;28;20029;-76
2023/12/22 04:05:50;;;;;;;11.57;1.02;;;7.90;99.90;;;;;;5078377;28;20028;-76
2023/12/22 04:08:15;;;;;;;9.45;0.90;;;8.00;99.90;;;;;;5078884;28;20483;-76
2023/12/22 04:10:41;;;;;;;11.40;0.63;;;8.00;99.90;;;;;;5078395;28;20025;-76
2023/12/22 04:13:07;;;;;;;11.88;1.08;;;8.00;99.90;;;;;;5076723;28;20075;-77
2023/12/22 04:15:32;;;;;;;8.35;0.77;;;8.00;99.90;;;;;;5058762;28;20029;-77
2023/12/22 04:17:58;;;;;;;12.70;0.85;;;7.90;99.90;;;;;;5058462;28;20021;-77
2023/12/22 04:20:24;;;;;;;15.20;0.65;;;7.90;99.90;;;;;;5058436;28;20027;-76
2023/12/22 04:22:49;;;;;;;8.48;0.77;;;7.90;99.90;;;;;;5076832;28;20086;-76
2023/12/22 04:25:15;;;;;;;12.80;0.77;;;7.90;99.90;;;;;;5058379;28;20479;-75
2023/12/22 04:27:42;;;;;;;7.30;0.43;;;7.90;99.90;;;;;;5077225;28;20478;-76
2023/12/22 04:30:08;;;;;;;13.05;0.45;;;7.90;99.90;;;;;;5059127;28;20021;-76
2023/12/22 04:32:36;;;;;;;19.90;1.40;;;7.90;99.90;;;;;;5059891;28;20529;-76
2023/12/22 04:35:02;;;;;;;14.60;1.45;;;8.00;99.90;;;;;;5059155;28;20025;-76
2023/12/22 04:37:28;;;;;;;13.70;0.45;;;8.00;99.90;;;;;;5076985;28;20509;-76
2023/12/22 04:39:53;;;;;;;6.80;1.02;;;8.00;99.90;;;;;;5076115;28;20025;-77
2023/12/22 04:42:19;;;;;;;16.35;1.33;;;8.00;99.90;;;;;;5058119;28;20024;-77
2023/12/22 04:44:45;;;;;;;15.15;0.38;;;8.00;99.90;;;;;;5075791;28;20017;-76
2023/12/22 04:47:12;;;;;;;6.97;1.02;;;8.00;99.90;;;;;;5076382;28;20035;-77
2023/12/22 04:49:38;;;;;;;6.85;0.38;;;8.00;99.90;;;;;;5076700;28;20021;-76
2023/12/22 04:52:03;;;;;;;17.25;1.00;;;8.10;99.90;;;;;;5058533;28;20452;-76
2023/12/22 04:54:29;;;;;;;9.40;0.10;;;8.10;99.90;;;;;;5057665;28;20025;-77
2023/12/22 04:56:54;;;;;;;16.98;0.90;;;8.10;99.90;;;;;;5075840;28;20024;-76
2023/12/22 04:59:20;;;;;;;17.80;1.13;;;8.10;99.90;;;;;;5075470;28;20020;-77
2023/12/22 05:01:45;;;;;;;6.95;0.35;;;8.10;99.90;;;;;;5076275;28;20074;-76
2023/12/22 05:04:11;;;;;;;15.25;1.85;;;8.10;99.90;;;;;;5075737;28;20012;-77
2023/12/22 05:06:37;;;;;;;12.02;0.20;;;8.10;99.90;;;;;;5075600;28;20051;-77
2023/12/22 05:09:03;;;;;;;13.05;1.38;;;8.10;99.90;;;;;;5057520;28;20491;-76
2023/12/22 05:11:29;;;;;;;17.25;1.15;;;8.20;99.90;;;;;;5075344;28;20423;-77
2023/12/22 05:13:54;;;;;;;5.72;0.70;;;8.20;99.90;;;;;;5075193;28;20035;-76
2023/12/22 05:16:20;;;;;;;10.50;0.57;;;8.20;99.90;;;;;;5076087;28;20021;-76
2023/12/22 05:18:46;;;;;;;6.22;0.20;;;8.20;99.90;;;;;;5075486;28;20024;-77
2023/12/22 05:21:13;;;;;;;13.13;0.68;;;8.10;99.90;;;;;;5076005;28;20025;-76
2023/12/22 05:23:39;;;;;;;10.32;0.63;;;8.20;99.90;;;;;;5075764;28;20426;-76
2023/12/22 05:26:05;;;;;;;6.32;0.10;;;8.20;99.90;;;;;;5075380;28;20024;-76
2023/12/22 05:28:32;;;;;;;2.40;0.13;;;8.20;99.90;;;;;;5057735;28;20056;-77
2023/12/22 05:30:57;;;;;;;5.93;0.85;;;8.30;99.90;;;;;;5057285;28;20430;-76
2023/12/22 05:33:23;;;;;;;14.73;0.73;;;8.20;99.90;;;;;;5075167;28;20021;-77
2023/12/22 05:35:48;;;;;;;9.55;0.30;;;8.20;99.90;;;;;;5056798;28;20021;-77
2023/12/22 05:38:14;;;;;;;6.43;0.55;;;8.20;99.90;;;;;;5074989;28;20028;-77
2023/12/22 05:40:40;;;;;;;6.60;0.75;;;8.20;99.90;;;;;;5057207;28;20016;-77
2023/12/22 05:43:05;;;;;;;15.48;0.22;;;8.30;99.90;;;;;;5075225;28;20020;-78
2023/12/22 05:45:31;;;;;;;9.88;0.57;;;8.30;99.90;;;;;;5056671;28;20500;-77
2023/12/22 05:47:56;;;;;;;15.55;0.40;;;8.30;99.90;;;;;;5074415;28;20052;-77
2023/12/22 05:50:22;;;;;;;9.93;0.43;;;8.30;99.90;;;;;;5074860;28;20065;-77
2023/12/22 05:52:48;;;;;;;8.35;0.35;;;8.30;99.90;;;;;;5075205;28;20024;-77
2023/12/22 05:55:13;;;;;;;12.95;0.40;;;8.30;99.90;;;;;;5056426;28;20031;-77
2023/12/22 05:57:39;;;;;;;17.98;1.75;;;8.40;99.90;;;;;;5074753;28;20028;-77
2023/12/22 06:00:07;;;;;;;14.93;0.43;;;9.80;99.90;;;;;;5074465;28;20495;-76
2023/12/22 06:02:33;;;;;;;9.10;0.85;;;8.40;99.90;;;;;;5056545;28;20434;-77
2023/12/22 06:04:59;;;;;;;8.30;2.50;;;8.40;99.90;;;;;;5074484;28;20055;-77
2023/12/22 06:07:25;;;;;;;7.05;0.30;;;8.50;99.90;;;;;;5057276;28;20024;-77
2023/12/22 06:09:50;;;;;;;8.30;0.57;;;8.50;99.90;;;;;;5074812;28;20055;-77
2023/12/22 06:12:16;;;;;;;13.98;0.88;;;8.50;99.90;;;;;;5056623;28;20104;-77
2023/12/22 06:14:41;;;;;;;10.50;0.70;;;8.50;99.90;;;;;;5074933;28;20457;-77
2023/12/22 06:17:07;;;;;;;10.10;0.47;;;8.50;99.90;;;;;;5074191;28;20054;-78
2023/12/22 06:19:35;;;;;;;15.20;2.75;;;8.50;99.90;;;;;;5056112;28;20020;-77
2023/12/22 06:22:00;;;;;;;15.48;1.25;;;8.50;99.90;;;;;;5056188;28;20017;-76
2023/12/22 06:24:27;;;;;;;10.40;0.95;;;8.50;99.90;;;;;;5074281;28;20028;-76
2023/12/22 06:26:52;;;;;;;19.95;1.58;;;8.50;99.90;;;;;;5056122;28;20039;-78
2023/12/22 06:29:18;;;;;;;8.27;0.93;;;8.60;99.90;;;;;;5056512;28;20028;-77
2023/12/22 06:31:43;;;;;;;14.70;0.88;;;8.60;99.90;;;;;;5074606;28;20020;-77
2023/12/22 06:34:09;;;;;;;18.05;1.38;;;8.60;99.90;;;;;;5056110;28;20027;-78
2023/12/22 06:36:34;;;;;;;16.50;0.60;;;8.60;99.90;;;;;;5056369;28;20031;-77
2023/12/22 06:39:00;;;;;;;15.00;1.80;;;8.60;99.90;;;;;;5056440;28;20020;-77
2023/12/22 06:41:29;;;;;;;10.98;0.82;;;8.60;99.90;;;;;;5056012;28;20042;-77
2023/12/22 06:43:55;;;;;;;16.38;0.73;;;8.70;99.90;;;;;;5074677;28;20086;-77
2023/12/22 06:46:22;;;;;;;17.05;1.55;;;8.70;99.90;;;;;;5056816;28;20092;-76
2023/12/22 06:48:48;;;;;;;9.05;0.45;;;10.10;99.90;;;;;;5075175;28;20043;-77
2023/12/22 06:51:22;;;;;;;12.30;1.10;;;8.70;99.90;;;;;;5074412;28;20025;-77
2023/12/22 06:53:49;;;;;;;12.02;1.08;;;8.70;99.90;;;;;;5074138;28;20108;-77
2023/12/22 06:56:26;;;;;;;13.13;1.00;;;8.70;99.90;;;;;;5056348;28;20032;-75
2023/12/22 06:58:53;;;;;;;15.13;1.50;;;8.80;99.90;;;;;;5074356;28;20032;-76
2023/12/22 07:01:23;;;;;;;18.27;1.83;;;8.80;99.90;;;;;;5056830;28;20044;-76
2023/12/22 07:03:50;;;;;;;14.50;1.23;;;8.80;99.90;;;;;;5074659;28;20025;-77
2023/12/22 07:06:17;;;;;;;23.85;1.98;;;8.80;99.90;;;;;;5073987;28;20063;-77
2023/12/22 07:08:43;;;;;;;9.45;0.95;;;8.80;99.90;;;;;;5074056;28;20040;-76
2023/12/22 07:11:12;;;;;;;21.17;1.88;;;8.70;99.90;;;;;;5074059;28;20099;-78
2023/12/22 07:13:41;;;;;;;12.73;0.88;;;8.80;99.90;;;;;;5074028;28;20028;-76
2023/12/22 07:16:06;;;;;;;18.77;1.80;;;8.80;99.90;;;;;;5056095;28;20020;-77
2023/12/22 07:18:32;;;;;;;14.43;0.95;;;8.80;99.90;;;;;;5055871;28;20016;-77
2023/12/22 07:20:58;;;;;;;21.05;1.88;;;10.50;99.90;;;;;;5074561;28;20024;-77
2023/12/22 07:23:24;;;;;;;24.40;1.90;;;8.80;99.90;;;;;;5073942;28;20054;-77
2023/12/22 07:25:50;;;;;;;16.35;1.75;;;8.80;99.90;;;;;;5074871;28;20032;-77
2023/12/22 07:28:16;;;;;;;16.83;2.13;;;8.80;99.90;;;;;;5056066;28;20029;-77
2023/12/22 07:30:42;;;;;;;20.80;2.33;;;8.90;99.90;;;;;;5073856;28;20111;-76
2023/12/22 07:33:07;;;;;;;16.23;1.65;;;8.90;99.90;;;;;;5076872;28;20025;-76
2023/12/22 07:35:35;;;;;;;28.77;2.13;;;8.90;99.90;;;;;;5059605;28;20031;-77
2023/12/22 07:38:02;;;;;;;12.80;1.55;;;8.80;99.90;;;;;;5078793;28;20067;-77
2023/12/22 07:40:30;;;;;;;15.13;1.25;;;8.90;99.90;;;;;;5077986;28;20016;-76
2023/12/22 07:42:56;;;;;;;21.63;1.73;;;8.70;99.90;;;;;;5059136;28;20029;-77
2023/12/22 07:45:21;;;;;;;21.88;2.00;;;8.70;99.90;;;;;;5059803;28;20136;-77
2023/12/22 07:47:47;;;;;;;22.55;1.60;;;8.70;99.90;;;;;;5077766;28;20100;-77
2023/12/22 07:50:13;;;;;;;15.10;0.68;;;8.60;99.90;;;;;;5059737;28;20062;-77
2023/12/22 07:52:38;;;;;;;17.90;1.40;;;8.70;99.90;;;;;;5059321;28;20082;-78
2023/12/22 07:55:10;;;;;;;19.77;1.13;;;8.60;99.90;;;;;;5059216;28;20074;-78
2023/12/22 07:57:36;;;;;;;24.98;2.38;;;8.70;99.90;;;;;;5058717;28;20029;-78
2023/12/22 08:00:04;;;;;;;35.80;2.38;;;8.70;99.90;;;;;;5058698;28;20040;-76
2023/12/22 08:02:30;;;;;;;23.23;2.05;;;8.70;99.90;;;;;;5077706;28;20045;-76
2023/12/22 08:04:55;;;;;;;21.88;1.30;;;8.70;99.90;;;;;;5059134;28;20028;-77
2023/12/22 08:07:21;;;;;;;17.75;3.45;;;8.70;99.90;;;;;;5077457;28;20103;-78
2023/12/22 08:09:47;;;;;;;24.88;2.70;;;8.60;99.90;;;;;;5060588;28;20044;-77
2023/12/22 08:12:12;;;;;;;25.50;1.88;;;8.70;99.90;;;;;;5060163;28;20039;-78
2023/12/22 08:14:38;;;;;;;17.98;1.55;;;8.60;99.90;;;;;;5077368;28;20029;-79
2023/12/22 08:17:03;;;;;;;12.18;0.82;;;8.60;99.90;;;;;;5059383;28;20032;-78
2023/12/22 08:19:29;;;;;;;8.48;0.77;;;8.50;99.90;;;;;;5078126;28;20016;-77
2023/12/22 08:21:55;;;;;;;8.35;0.70;;;8.50;99.90;;;;;;5077675;28;20024;-78
2023/12/22 08:24:21;;;;;;;11.90;0.85;;;8.30;99.90;;;;;;5077850;28;20094;-78
2023/12/22 08:26:46;;;;;;;10.02;1.00;;;8.20;99.90;;;;;;5078317;28;20052;-77
2023/12/22 08:29:12;;;;;;;7.30;0.60;;;8.10;99.90;;;;;;5077480;28;20028;-76
2023/12/22 08:31:38;;;;;;;8.82;1.23;;;8.20;99.90;;;;;;5076604;28;20028;-77
2023/12/22 08:34:03;;;;;;;11.18;0.55;;;8.10;99.90;;;;;;5076600;28;20012;-76
2023/12/22 08:36:29;;;;;;;12.70;0.52;;;8.10;99.90;;;;;;5076910;28;20540;-76
2023/12/22 08:38:54;;;;;;;14.93;0.82;;;8.10;99.90;;;;;;5077196;28;20025;-76
2023/12/22 08:41:20;;;;;;;14.18;0.85;;;8.20;99.90;;;;;;5077024;28;20357;-76
2023/12/22 08:43:46;;;;;;;9.20;0.40;;;8.20;99.90;;;;;;5075477;28;20495;-75
2023/12/22 08:46:12;;;;;;;19.45;0.57;;;8.30;99.90;;;;;;5076239;28;20027;-75
2023/12/22 08:48:38;;;;;;;14.50;1.42;;;8.30;99.90;;;;;;5076707;28;20480;-76
2023/12/22 08:51:04;;;;;;;16.75;1.80;;;8.60;99.90;;;;;;5076806;28;20023;-75
2023/12/22 08:53:33;;;;;;;18.20;1.00;;;8.50;99.90;;;;;;5058365;28;20082;-77
2023/12/22 08:55:59;;;;;;;9.75;1.00;;;8.50;99.90;;;;;;5076712;28;20483;-75
2023/12/22 08:58:25;;;;;;;11.85;1.65;;;8.60;99.90;;;;;;5075993;28;20475;-75
2023/12/22 09:00:51;;;;;;;17.35;1.88;;;8.70;99.90;;;;;;5057809;28;20548;-76
2023/12/22 09:03:17;;;;;;;14.13;1.25;;;10.00;99.90;;;;;;5075719;28;20052;-74
2023/12/22 09:05:42;;;;;;;4.18;0.60;;;8.70;99.90;;;;;;5057792;28;20043;-74
2023/12/22 09:08:08;;;;;;;5.45;0.57;;;8.70;99.90;;;;;;5078212;28;20020;-75
2023/12/22 09:10:33;;;;;;;5.10;0.28;;;8.60;99.90;;;;;;5057951;28;20024;-75
2023/12/22 09:13:00;;;;;;;7.68;0.10;;;8.60;99.90;;;;;;5075122;28;20020;-76
2023/12/22 09:15:26;;;;;;;6.50;0.60;;;8.50;99.90;;;;;;5074551;28;20024;-76
2023/12/22 09:17:53;;;;;;;14.40;0.60;;;8.50;99.90;;;;;;5075794;28;20016;-75
2023/12/22 09:20:18;;;;;;;7.93;0.30;;;8.60;99.90;;;;;;5075897;28;20027;-75
2023/12/22 09:22:44;;;;;;;8.13;1.05;;;8.70;99.90;;;;;;5058375;28;20107;-75
2023/12/22 09:25:09;;;;;;;16.20;1.10;;;8.70;99.90;;;;;;5074575;28;20369;-74
2023/12/22 09:27:35;;;;;;;16.85;0.95;;;8.70;99.90;;;;;;5074449;28;20075;-75
2023/12/22 09:30:01;;;;;;;14.93;2.08;;;8.80;99.90;;;;;;5056821;28;20020;-75
2023/12/22 09:32:27;;;;;;;3.67;0.00;;;8.90;99.90;;;;;;5057001;28;20025;-76
2023/12/22 09:34:54;;;;;;;9.88;0.60;;;9.00;99.90;;;;;;5074704;28;20016;-75
2023/12/22 09:37:20;;;;;;;7.45;1.35;;;9.00;99.90;;;;;;5057113;28;20026;-76
2023/12/22 09:39:46;;;;;;;2.72;0.30;;;9.80;99.90;;;;;;5075532;28;20025;-75
2023/12/22 09:42:11;;;;;;;5.18;0.20;;;9.10;99.90;;;;;;5074906;28;20091;-75
2023/12/22 09:44:42;;;;;;;12.48;0.90;;;9.10;99.90;;;;;;5074726;28;20070;-75
2023/12/22 09:47:12;;;;;;;3.45;0.10;;;9.10;99.90;;;;;;5075295;28;20020;-74
2023/12/22 09:49:39;;;;;;;4.63;0.00;;;;;;;;;;5074476;28;20119;-75
2023/12/22 09:52:07;;;;;;;5.95;0.98;;;9.30;99.90;;;;;;5056799;28;20055;-75
2023/12/22 09:54:33;;;;;;;7.68;1.13;;;;;;;;;;5074903;28;20028;-76
2023/12/22 09:57:03;;;;;;;4.10;0.10;;;9.30;99.90;;;;;;5075191;28;20139;-74
2023/12/22 09:59:33;;;;;;;2.90;0.30;;;9.40;99.90;;;;;;5074488;28;20023;-74
2023/12/22 10:02:02;;;;;;;6.38;0.38;;;9.40;99.90;;;;;;5074409;28;20021;-75
2023/12/22 10:04:27;;;;;;;7.75;0.77;;;9.40;99.90;;;;;;5074353;28;20073;-75
2023/12/22 10:07:00;;;;;;;13.52;1.25;;;9.40;99.90;;;;;;5074449;28;20024;-75
2023/12/22 10:09:26;;;;;;;6.22;0.10;;;9.50;99.90;;;;;;5055810;28;20047;-75
2023/12/22 10:11:56;;;;;;;8.73;0.55;;;9.50;99.90;;;;;;5074044;28;20020;-75
2023/12/22 10:14:23;;;;;;;7.63;0.50;;;9.60;99.90;;;;;;5074669;28;20107;-75
2023/12/22 10:16:52;;;;;;;2.63;0.20;;;9.60;99.90;;;;;;5055742;28;20033;-74
2023/12/22 10:19:19;;;;;;;6.72;0.55;;;;;;;;;;5074455;28;20414;-74
2023/12/22 10:21:45;;;;;;;1.33;0.00;;;9.70;99.90;;;;;;5056464;28;20495;-74
2023/12/22 10:24:50;;;;;;;11.80;0.15;;;9.70;99.90;;;;;;5073690;28;20076;-75
2023/12/22 10:27:23;;;;;;;6.35;0.17;;;9.70;99.90;;;;;;5056879;28;20029;-74
2023/12/22 10:29:54;;;;;;;5.22;0.17;;;;;;;;;;5074126;28;20028;-74
2023/12/22 10:32:21;;;;;;;6.88;0.28;;;9.80;99.90;;;;;;5074336;28;20028;-75
2023/12/22 10:34:47;;;;;;;2.70;0.00;;;9.80;99.90;;;;;;5073632;28;20368;-75
2023/12/22 10:37:12;;;;;;;4.50;0.50;;;9.70;99.90;;;;;;5073538;28;20020;-74
2023/12/22 10:39:38;;;;;;;3.17;0.10;;;9.80;99.90;;;;;;5073739;28;20025;-75
2023/12/22 10:42:04;;;;;;;8.50;0.40;;;9.90;99.90;;;;;;5073920;28;20020;-74
2023/12/22 10:44:30;;;;;;;3.05;0.10;;;9.90;99.90;;;;;;5055566;28;20115;-75
2023/12/22 10:46:56;;;;;;;4.80;0.47;;;9.80;99.90;;;;;;5073430;28;20131;-76
2023/12/22 10:49:23;;;;;;;3.78;0.00;;;9.90;99.90;;;;;;5073526;28;20032;-76
2023/12/22 10:51:49;;;;;;;8.43;0.40;;;9.90;99.90;;;;;;5073414;28;20399;-75
2023/12/22 10:54:16;;;;;;;4.40;0.20;;;9.80;99.90;;;;;;5073229;28;20044;-74
2023/12/22 10:56:41;;;;;;;6.45;0.35;;;9.80;99.90;;;;;;5073081;28;20032;-74
2023/12/22 10:59:08;;;;;;;4.63;0.35;;;9.90;99.90;;;;;;5073511;28;20559;-75
2023/12/22 11:01:38;;;;;;;5.95;0.20;;;10.30;99.90;;;;;;5073539;28;20048;-74
2023/12/22 11:04:13;;;;;;;7.80;0.68;;;9.90;99.90;;;;;;5073468;28;20430;-74
2023/12/22 11:06:42;;;;;;;7.53;0.88;;;9.90;99.90;;;;;;5075360;28;20032;-74
2023/12/22 11:09:10;;;;;;;4.93;0.03;;;9.90;99.90;;;;;;5059359;28;20070;-75
2023/12/22 11:11:39;;;;;;;6.22;0.75;;;9.80;99.90;;;;;;5077628;28;20479;-74
2023/12/22 11:14:06;;;;;;;6.97;0.20;;;9.80;99.90;;;;;;5059151;28;20089;-74
2023/12/22 11:16:34;;;;;;;7.15;0.38;;;9.80;99.90;;;;;;5077181;28;20021;-75
2023/12/22 11:19:02;;;;;;;4.07;0.10;;;9.80;99.90;;;;;;5059475;28;20059;-74
2023/12/22 11:21:29;;;;;;;3.20;0.20;;;9.80;99.90;;;;;;5077717;28;20543;-75
2023/12/22 11:23:57;;;;;;;4.35;0.17;;;9.80;99.90;;;;;;5077054;28;20414;-74
2023/12/22 11:26:23;;;;;;;4.80;0.00;;;9.80;99.90;;;;;;5077082;28;20492;-74
2023/12/22 11:28:51;;;;;;;8.02;0.70;;;9.90;99.90;;;;;;5076970;28;20078;-76
2023/12/22 11:31:20;;;;;;;1.85;0.00;;;9.90;99.90;;;;;;5078575;28;20032;-75
2023/12/22 11:33:50;;;;;;;6.85;0.15;;;10.00;99.90;;;;;;5077027;28;20368;-76
2023/12/22 11:36:17;;;;;;;2.15;0.00;;;10.00;99.90;;;;;;5058774;28;20025;-77
2023/12/22 11:38:44;;;;;;;2.65;0.28;;;10.10;99.90;;;;;;5059581;28;20538;-76
2023/12/22 11:41:18;;;;;;;6.28;0.85;;;10.10;99.90;;;;;;5077269;28;20100;-76
2023/12/22 11:43:44;;;;;;;5.47;0.45;;;10.10;99.90;;;;;;5077213;28;20032;-76
2023/12/22 11:46:13;;;;;;;5.45;0.20;;;10.10;99.90;;;;;;5077171;28;20052;-75
2023/12/22 11:48:46;;;;;;;10.80;0.45;;;10.20;99.90;;;;;;5076678;28;20438;-76
2023/12/22 11:51:15;;;;;;;5.90;0.22;;;10.30;99.90;;;;;;5077136;28;20025;-76
2023/12/22 11:53:41;;;;;;;2.75;0.00;;;10.20;99.90;;;;;;5076870;28;20028;-76
2023/12/22 11:56:08;;;;;;;9.15;0.82;;;10.20;99.90;;;;;;5058542;28;20032;-76
2023/12/22 11:58:33;;;;;;;4.00;0.65;;;10.30;99.90;;;;;;5076832;28;20054;-77
2023/12/22 12:01:03;;;;;;;9.00;0.35;;;10.30;99.90;;;;;;5076630;28;20475;-76
2023/12/22 12:03:31;;;;;;;2.30;0.00;;;10.30;99.90;;;;;;5058628;28;20032;-77
2023/12/22 12:06:18;;;;;;;3.95;0.85;;;10.30;99.90;;;;;;5076439;28;20109;-76
2023/12/22 12:08:44;;;;;;;6.95;0.50;;;10.30;99.90;;;;;;5058850;28;20483;-76
2023/12/22 12:11:10;;;;;;;0.93;0.03;;;10.40;99.90;;;;;;5076611;28;20035;-77
2023/12/22 12:13:41;;;;;;;6.28;0.17;;;10.40;99.90;;;;;;5076906;28;20491;-77
2023/12/22 12:16:07;;;;;;;4.65;0.43;;;10.40;99.90;;;;;;5076129;28;20027;-77
2023/12/22 12:18:34;;;;;;;11.07;0.00;;;10.40;99.90;;;;;;5057568;28;20115;-76
2023/12/22 12:21:00;;;;;;;5.38;0.43;;;10.40;99.90;;;;;;5058988;28;20080;-76
2023/12/22 12:23:29;;;;;;;8.20;0.43;;;10.50;99.90;;;;;;5058632;28;20048;-76
2023/12/22 12:25:55;;;;;;;6.10;0.00;;;10.50;99.90;;;;;;5076788;28;20025;-76
2023/12/22 12:28:26;;;;;;;6.10;0.10;;;10.50;99.90;;;;;;5076246;28;20044;-76
2023/12/22 12:31:03;;;;;;;2.58;0.20;;;10.50;99.90;;;;;;5058460;28;20028;-76
2023/12/22 12:33:29;;;;;;;2.15;0.30;;;10.50;99.90;;;;;;5079555;28;20028;-78
2023/12/22 12:35:57;;;;;;;7.72;0.28;;;10.40;99.90;;;;;;5059583;28;20031;-77
2023/12/22 12:38:30;;;;;;;8.27;0.50;;;11.30;99.90;;;;;;5058829;28;20039;-77
2023/12/22 12:40:57;;;;;;;7.63;0.13;;;10.40;99.90;;;;;;5059086;28;20028;-77
2023/12/22 12:43:24;;;;;;;6.25;0.40;;;10.40;99.90;;;;;;5076228;28;20063;-77
2023/12/22 12:45:52;;;;;;;5.85;0.68;;;10.40;99.90;;;;;;5060580;28;20029;-77
2023/12/22 12:48:20;;;;;;;5.28;0.05;;;10.90;99.90;;;;;;5059347;28;20025;-77
2023/12/22 12:50:46;;;;;;;5.57;0.63;;;10.40;99.90;;;;;;5076866;28;20033;-77